createdAt,value
2023-02-06T00:02:05.662Z,102117.56
2023-02-06T00:04:32.367Z,102125.78
2023-02-06T00:06:58.955Z,102124.63
2023-02-06T00:09:25.559Z,102128.72
2023-02-06T00:11:52.128Z,102136.59
2023-02-06T00:14:18.714Z,102130.28
2023-02-06T00:16:45.310Z,102130.16
2023-02-06T00:19:11.941Z,102138.50
2023-02-06T00:21:38.539Z,102135.59
2023-02-06T00:24:05.374Z,102145.75
2023-02-06T00:26:32.056Z,102158.28
2023-02-06T00:28:58.967Z,102165.47
2023-02-06T00:31:25.732Z,102178.00
2023-02-06T00:33:52.363Z,102176.53
2023-02-06T00:36:19.020Z,102170.53
2023-02-06T00:38:47.015Z,102173.78
2023-02-06T00:41:13.595Z,102166.50
2023-02-06T00:43:40.305Z,102171.63
2023-02-06T00:46:07.011Z,102176.53
2023-02-06T00:48:33.645Z,102173.84
2023-02-06T00:51:00.264Z,102171.84
2023-02-06T00:53:27.087Z,102168.00
2023-02-06T00:55:53.650Z,102170.72
2023-02-06T00:58:20.367Z,102157.25
2023-02-06T01:00:46.958Z,102157.69
2023-02-06T01:03:13.552Z,102156.94
2023-02-06T01:05:41.479Z,102156.50
2023-02-06T01:08:08.166Z,102154.81
2023-02-06T01:10:35.060Z,102162.03
2023-02-06T01:13:01.662Z,102157.06
2023-02-06T01:15:28.398Z,102158.38
2023-02-06T01:17:55.040Z,102167.16
2023-02-06T01:20:21.745Z,102164.59
2023-02-06T01:22:48.647Z,102170.03
2023-02-06T01:25:15.299Z,102163.19
2023-02-06T01:27:41.921Z,102175.16
2023-02-06T01:30:09.451Z,102173.34
2023-02-06T01:32:40.469Z,102172.25
2023-02-06T01:35:09.151Z,102179.53
2023-02-06T01:37:36.535Z,102183.59
2023-02-06T01:40:07.426Z,102174.16
2023-02-06T01:42:35.754Z,102176.63
2023-02-06T01:45:27.056Z,102180.09
2023-02-06T01:48:05.894Z,102177.06
2023-02-06T01:50:34.944Z,102173.28
2023-02-06T01:53:05.655Z,102162.69
2023-02-06T01:55:34.713Z,102167.94
2023-02-06T01:58:02.710Z,102165.56
2023-02-06T02:00:29.327Z,102158.84
2023-02-06T02:02:55.955Z,102154.56
2023-02-06T02:05:22.590Z,102146.69
2023-02-06T02:08:08.450Z,102149.13
2023-02-06T02:10:35.280Z,102146.88
2023-02-06T02:13:05.006Z,102144.44
2023-02-06T02:16:00.948Z,102124.31
2023-02-06T02:18:30.570Z,102135.34
2023-02-06T02:21:15.723Z,102134.75
2023-02-06T02:24:10.275Z,102136.09
2023-02-06T02:26:36.813Z,102143.22
2023-02-06T02:29:32.548Z,102142.09
2023-02-06T02:32:24.336Z,102150.63
2023-02-06T02:35:05.492Z,102151.28
2023-02-06T02:38:01.380Z,102143.03
2023-02-06T02:40:43.564Z,102148.78
2023-02-06T02:43:32.028Z,102141.50
2023-02-06T02:46:10.853Z,102150.94
2023-02-06T02:48:43.216Z,102154.91
2023-02-06T02:51:11.478Z,102158.38
2023-02-06T02:53:38.223Z,102155.16
2023-02-06T02:56:34.209Z,102147.78
2023-02-06T02:59:08.864Z,102152.16
2023-02-06T03:01:42.942Z,102158.44
2023-02-06T03:04:23.400Z,102156.75
2023-02-06T03:07:15.771Z,102153.38
2023-02-06T03:10:08.532Z,102151.50
2023-02-06T03:13:15.034Z,102152.91
2023-02-06T03:15:56.553Z,102156.53
2023-02-06T03:18:40.458Z,102153.03
2023-02-06T03:21:11.554Z,102155.09
2023-02-06T03:23:43.229Z,102162.47
2023-02-06T03:26:14.349Z,102163.38
2023-02-06T03:28:54.179Z,102161.47
2023-02-06T03:31:29.360Z,102161.69
2023-02-06T03:34:09.852Z,102160.91
2023-02-06T03:36:36.584Z,102158.03
2023-02-06T03:39:04.066Z,102160.22
2023-02-06T03:41:35.770Z,102153.97
2023-02-06T03:44:05.729Z,102165.66
2023-02-06T03:46:34.328Z,102159.09
2023-02-06T03:49:06.617Z,102171.38
2023-02-06T03:52:06.092Z,102170.47
2023-02-06T03:54:37.529Z,102176.56
2023-02-06T03:57:06.934Z,102174.31
2023-02-06T03:59:33.709Z,102169.66
2023-02-06T04:02:03.006Z,102178.19
2023-02-06T04:04:38.210Z,102166.94
2023-02-06T04:07:11.666Z,102163.63
2023-02-06T04:09:39.639Z,102162.69
2023-02-06T04:12:07.097Z,102160.72
2023-02-06T04:14:33.990Z,102162.47
2023-02-06T04:17:00.605Z,102149.31
2023-02-06T04:19:27.206Z,102160.22
2023-02-06T04:21:53.817Z,102156.56
2023-02-06T04:24:20.577Z,102148.22
2023-02-06T04:26:47.169Z,102152.66
2023-02-06T04:29:13.782Z,102161.28
2023-02-06T04:31:41.038Z,102156.47
2023-02-06T04:34:08.233Z,102164.81
2023-02-06T04:36:34.888Z,102157.56
2023-02-06T04:39:02.340Z,102163.28
2023-02-06T04:41:29.075Z,102167.66
2023-02-06T04:43:57.048Z,102167.75
2023-02-06T04:46:23.826Z,102169.06
2023-02-06T04:48:51.050Z,102176.13
2023-02-06T04:51:17.707Z,102178.13
2023-02-06T04:53:44.526Z,102172.09
2023-02-06T04:56:12.638Z,102171.97
2023-02-06T04:58:40.359Z,102181.00
2023-02-06T05:01:07.486Z,102182.69
2023-02-06T05:03:34.445Z,102183.25
2023-02-06T05:06:02.422Z,102182.34
2023-02-06T05:08:29.570Z,102179.91
2023-02-06T05:10:56.540Z,102181.00
2023-02-06T05:13:23.478Z,102191.28
2023-02-06T05:15:50.447Z,102187.03
2023-02-06T05:18:17.760Z,102185.03
2023-02-06T05:20:44.526Z,102193.97
2023-02-06T05:23:11.515Z,102190.28
2023-02-06T05:25:38.340Z,102187.03
2023-02-06T05:28:05.339Z,102198.41
2023-02-06T05:30:33.493Z,102187.94
2023-02-06T05:33:00.470Z,102187.94
2023-02-06T05:35:27.827Z,102192.41
2023-02-06T05:37:54.646Z,102196.97
2023-02-06T05:40:21.253Z,102185.25
2023-02-06T05:42:47.868Z,102192.06
2023-02-06T05:45:14.624Z,102195.06
2023-02-06T05:47:41.246Z,102189.56
2023-02-06T05:50:08.270Z,102195.28
2023-02-06T05:52:34.888Z,102194.38
2023-02-06T05:55:01.489Z,102207.09
2023-02-06T05:57:28.186Z,102201.28
2023-02-06T05:59:54.823Z,102198.59
2023-02-06T06:02:21.404Z,102207.75
2023-02-06T06:04:48.121Z,102200.63
2023-02-06T06:07:14.812Z,102196.19
2023-02-06T06:09:41.600Z,102194.94
2023-02-06T06:12:08.348Z,102193.28
2023-02-06T06:14:35.099Z,102194.84
2023-02-06T06:17:01.947Z,102197.72
2023-02-06T06:19:28.583Z,102199.53
2023-02-06T06:21:57.851Z,102200.06
2023-02-06T06:24:25.690Z,102195.75
2023-02-06T06:26:52.286Z,102187.59
2023-02-06T06:29:18.937Z,102187.00
2023-02-06T06:31:45.578Z,102184.69
2023-02-06T06:34:12.300Z,102186.28
2023-02-06T06:36:38.965Z,102196.78
2023-02-06T06:39:05.620Z,102187.97
2023-02-06T06:41:32.221Z,102191.41
2023-02-06T06:43:59.153Z,102192.25
2023-02-06T06:46:26.154Z,102194.69
2023-02-06T06:48:52.860Z,102199.06
2023-02-06T06:51:20.538Z,102184.09
2023-02-06T06:53:47.150Z,102193.25
2023-02-06T06:56:14.906Z,102195.81
2023-02-06T06:58:41.856Z,102198.16
2023-02-06T07:01:09.182Z,102195.97
2023-02-06T07:03:35.983Z,102195.97
2023-02-06T07:06:02.932Z,102187.47
2023-02-06T07:08:29.637Z,102186.13
2023-02-06T07:10:57.555Z,102195.50
2023-02-06T07:13:24.212Z,102187.59
2023-02-06T07:15:50.793Z,102195.28
2023-02-06T07:18:17.385Z,102204.75
2023-02-06T07:20:44.067Z,102196.84
2023-02-06T07:23:10.666Z,102195.50
2023-02-06T07:25:37.534Z,102196.72
2023-02-06T07:28:04.555Z,102206.41
2023-02-06T07:30:31.198Z,102210.88
2023-02-06T07:32:57.901Z,102214.56
2023-02-06T07:35:24.581Z,102209.53
2023-02-06T07:37:53.786Z,102205.44
2023-02-06T07:40:20.410Z,102206.09
2023-02-06T07:42:47.028Z,102201.31
2023-02-06T07:45:13.698Z,102212.22
2023-02-06T07:47:40.337Z,102206.97
2023-02-06T07:50:07.204Z,102208.53
2023-02-06T07:52:33.981Z,102205.75
2023-02-06T07:55:00.563Z,102197.47
2023-02-06T07:57:27.506Z,102201.88
2023-02-06T07:59:54.086Z,102208.09
2023-02-06T08:02:20.689Z,102202.41
2023-02-06T08:04:47.384Z,102201.63
2023-02-06T08:07:16.771Z,102190.69
2023-02-06T08:09:43.452Z,102201.91
2023-02-06T08:12:11.878Z,102201.16
2023-02-06T08:14:38.978Z,102193.22
2023-02-06T08:17:05.715Z,102203.44
2023-02-06T08:19:32.456Z,102201.19
2023-02-06T08:21:59.082Z,102198.75
2023-02-06T08:24:25.762Z,102207.59
2023-02-06T08:26:52.374Z,102202.50
2023-02-06T08:29:19.000Z,102199.28
2023-02-06T08:31:45.679Z,102197.47
2023-02-06T08:34:14.808Z,102198.91
2023-02-06T08:36:43.557Z,102201.13
2023-02-06T08:39:13.101Z,102201.19
2023-02-06T08:41:41.583Z,102196.31
2023-02-06T08:44:14.906Z,102200.00
2023-02-06T08:46:42.529Z,102194.22
2023-02-06T08:49:17.148Z,102194.22
2023-02-06T08:51:44.837Z,102193.91
2023-02-06T08:54:13.873Z,102193.69
2023-02-06T08:56:40.521Z,102196.13
2023-02-06T08:59:07.963Z,102188.19
2023-02-06T09:01:35.985Z,102190.38
2023-02-06T09:04:07.119Z,102188.03
2023-02-06T09:06:39.115Z,102194.56
2023-02-06T09:09:06.921Z,102193.47
2023-02-06T09:11:33.920Z,102190.00
2023-02-06T09:14:03.104Z,102180.91
2023-02-06T09:16:30.837Z,102187.63
2023-02-06T09:18:57.438Z,102188.19
2023-02-06T09:21:25.514Z,102198.78
2023-02-06T09:23:54.764Z,102201.28
2023-02-06T09:26:24.304Z,102199.16
2023-02-06T09:28:56.027Z,102189.19
2023-02-06T09:31:22.777Z,102192.34
2023-02-06T09:33:49.850Z,102196.41
2023-02-06T09:36:18.882Z,102199.28
2023-02-06T09:38:48.653Z,102197.81
2023-02-06T09:41:30.528Z,102200.25
2023-02-06T09:44:00.201Z,102197.25
2023-02-06T09:46:33.106Z,102190.34
2023-02-06T09:49:06.603Z,102192.00
2023-02-06T09:51:49.244Z,102189.84
2023-02-06T09:54:44.528Z,102186.09
2023-02-06T09:57:24.786Z,102190.19
2023-02-06T10:00:00.741Z,102185.41
2023-02-06T10:02:30.359Z,102180.63
2023-02-06T10:05:08.363Z,102175.47
2023-02-06T10:07:44.066Z,102174.50
2023-02-06T10:10:27.742Z,102176.19
2023-02-06T10:13:49.656Z,102179.22
2023-02-06T10:16:42.579Z,102162.78
2023-02-06T10:19:16.368Z,102163.94
2023-02-06T10:21:53.879Z,102156.78
2023-02-06T10:24:29.441Z,102155.88
2023-02-06T10:27:01.620Z,102156.59
2023-02-06T10:29:31.368Z,102151.59
2023-02-06T10:32:27.349Z,102146.59
2023-02-06T10:35:14.429Z,102150.38
2023-02-06T10:38:16.015Z,102146.94
2023-02-06T10:41:04.557Z,102145.31
2023-02-06T10:43:45.956Z,102142.69
2023-02-06T10:46:35.381Z,102132.00
2023-02-06T10:49:17.149Z,102135.38
2023-02-06T10:51:46.840Z,102137.34
2023-02-06T10:54:22.413Z,102128.31
2023-02-06T10:56:51.529Z,102126.28
2023-02-06T10:59:26.959Z,102124.03
2023-02-06T11:02:10.489Z,102118.13
2023-02-06T11:05:05.150Z,102103.00
2023-02-06T11:07:39.344Z,102113.53
2023-02-06T11:10:07.353Z,102118.16
2023-02-06T11:13:03.572Z,102104.34
2023-02-06T11:15:34.864Z,102106.44
2023-02-06T11:18:05.417Z,102107.91
2023-02-06T11:20:34.625Z,102105.13
2023-02-06T11:23:27.112Z,102101.97
2023-02-06T11:25:58.242Z,102092.25
2023-02-06T11:28:26.041Z,102096.13
2023-02-06T11:31:01.763Z,102095.66
2023-02-06T11:33:50.827Z,102084.69
2023-02-06T11:36:33.519Z,102083.81
2023-02-06T11:39:06.163Z,102081.03
2023-02-06T11:41:34.303Z,102076.81
2023-02-06T11:44:03.113Z,102080.03
2023-02-06T11:46:35.229Z,102070.66
2023-02-06T11:49:19.760Z,102071.88
2023-02-06T11:51:59.476Z,102071.59
2023-02-06T11:54:27.229Z,102072.03
2023-02-06T11:57:04.407Z,102069.09
2023-02-06T11:59:32.916Z,102060.81
2023-02-06T12:02:00.346Z,102052.25
2023-02-06T12:04:40.488Z,102056.78
2023-02-06T12:07:16.547Z,102057.47
2023-02-06T12:09:43.182Z,102055.63
2023-02-06T12:12:29.649Z,102055.44
2023-02-06T12:15:21.678Z,102063.06
2023-02-06T12:18:06.297Z,102042.03
2023-02-06T12:20:35.892Z,102037.59
2023-02-06T12:23:16.318Z,102032.25
2023-02-06T12:25:49.325Z,102036.25
2023-02-06T12:28:26.251Z,102031.31
2023-02-06T12:30:59.342Z,102028.31
2023-02-06T12:33:39.242Z,102033.59
2023-02-06T12:36:19.718Z,102034.94
2023-02-06T12:39:17.351Z,102030.38
2023-02-06T12:42:02.307Z,102024.22
2023-02-06T12:44:38.760Z,102021.19
2023-02-06T12:47:05.343Z,102031.44
2023-02-06T12:49:44.872Z,102026.25
2023-02-06T12:52:23.897Z,102023.50
2023-02-06T12:55:30.117Z,102017.50
2023-02-06T12:57:57.543Z,102019.03
2023-02-06T13:00:43.472Z,102021.72
2023-02-06T13:03:30.089Z,102018.16
2023-02-06T13:06:09.801Z,102016.59
2023-02-06T13:08:36.334Z,102024.56
2023-02-06T13:11:31.566Z,102021.72
2023-02-06T13:14:24.722Z,102019.59
2023-02-06T13:17:07.528Z,102020.00
2023-02-06T13:19:37.100Z,102016.28
2023-02-06T13:22:09.597Z,102010.69
2023-02-06T13:25:22.126Z,102013.66
2023-02-06T13:27:48.898Z,102021.97
2023-02-06T13:30:30.884Z,102014.03
2023-02-06T13:33:09.156Z,102021.16
2023-02-06T13:35:57.186Z,102012.97
2023-02-06T13:38:24.229Z,102012.63
2023-02-06T13:41:12.863Z,102019.22
2023-02-06T13:43:42.299Z,102016.91
2023-02-06T13:46:16.870Z,102011.34
2023-02-06T13:49:22.022Z,102003.53
2023-02-06T13:52:30.408Z,102018.41
2023-02-06T13:55:21.952Z,102027.97
2023-02-06T13:58:00.303Z,102037.53
2023-02-06T14:00:34.228Z,102029.38
2023-02-06T14:03:10.172Z,102034.66
2023-02-06T14:06:04.934Z,102031.81
2023-02-06T14:08:44.028Z,102041.38
2023-02-06T14:11:18.138Z,102043.16
2023-02-06T14:13:57.407Z,102038.38
2023-02-06T14:16:38.980Z,102051.16
2023-02-06T14:19:17.900Z,102041.25
2023-02-06T14:22:06.190Z,102051.25
2023-02-06T14:24:51.651Z,102047.91
2023-02-06T14:27:41.036Z,102047.31
2023-02-06T14:30:27.188Z,102051.94
2023-02-06T14:33:16.050Z,102048.50
2023-02-06T14:36:01.810Z,102050.31
2023-02-06T14:38:55.917Z,102038.03
2023-02-06T14:41:23.200Z,102049.22
2023-02-06T14:43:51.401Z,102049.38
2023-02-06T14:46:20.415Z,102046.44
2023-02-06T14:48:55.223Z,102046.19
2023-02-06T14:51:40.852Z,102051.44
2023-02-06T14:54:30.016Z,102058.59
2023-02-06T14:56:59.379Z,102056.47
2023-02-06T14:59:26.568Z,102057.56
2023-02-06T15:01:57.157Z,102053.78
2023-02-06T15:04:30.170Z,102057.19
2023-02-06T15:07:00.547Z,102060.00
2023-02-06T15:09:57.403Z,102061.25
2023-02-06T15:12:26.328Z,102080.63
2023-02-06T15:15:01.599Z,102076.25
2023-02-06T15:17:29.453Z,102072.28
2023-02-06T15:19:56.225Z,102079.28
2023-02-06T15:22:29.293Z,102077.69
2023-02-06T15:25:09.339Z,102080.69
2023-02-06T15:27:38.035Z,102081.22
2023-02-06T15:30:24.086Z,102087.13
2023-02-06T15:32:53.025Z,102083.25
2023-02-06T15:35:25.142Z,102083.22
2023-02-06T15:37:53.621Z,102085.72
2023-02-06T15:40:31.255Z,102087.75
2023-02-06T15:43:01.938Z,102091.56
2023-02-06T15:45:38.851Z,102098.00
2023-02-06T15:48:17.835Z,102102.53
2023-02-06T15:51:42.010Z,102096.81
2023-02-06T15:54:19.983Z,102101.34
2023-02-06T15:56:58.708Z,102101.59
2023-02-06T15:59:26.865Z,102107.56
2023-02-06T16:01:57.062Z,102102.44
2023-02-06T16:04:38.350Z,102114.25
2023-02-06T16:07:25.159Z,102112.47
2023-02-06T16:09:54.759Z,102116.44
2023-02-06T16:12:22.865Z,102118.84
2023-02-06T16:14:56.484Z,102122.19
2023-02-06T16:17:35.316Z,102123.47
2023-02-06T16:20:05.178Z,102120.22
2023-02-06T16:22:35.129Z,102134.28
2023-02-06T16:25:30.421Z,102142.13
2023-02-06T16:27:58.693Z,102142.94
2023-02-06T16:30:35.082Z,102138.75
2023-02-06T16:33:33.100Z,102144.69
2023-02-06T16:35:59.972Z,102139.06
2023-02-06T16:38:26.798Z,102135.81
2023-02-06T16:40:53.523Z,102142.44
2023-02-06T16:43:20.156Z,102139.34
2023-02-06T16:45:47.647Z,102145.09
2023-02-06T16:48:16.529Z,102149.88
2023-02-06T16:50:44.838Z,102146.47
2023-02-06T16:53:24.553Z,102143.56
2023-02-06T16:55:52.134Z,102140.09
2023-02-06T16:58:22.993Z,102143.47
2023-02-06T17:00:50.661Z,102142.44
2023-02-06T17:03:17.630Z,102146.47
2023-02-06T17:05:46.719Z,102148.72
2023-02-06T17:08:25.066Z,102149.06
2023-02-06T17:10:52.176Z,102151.66
2023-02-06T17:13:21.339Z,102151.56
2023-02-06T17:15:49.347Z,102145.28
2023-02-06T17:18:18.294Z,102149.84
2023-02-06T17:20:47.879Z,102143.03
2023-02-06T17:23:14.579Z,102144.56
2023-02-06T17:25:43.057Z,102144.00
2023-02-06T17:28:17.794Z,102145.66
2023-02-06T17:30:44.718Z,102153.41
2023-02-06T17:33:11.498Z,102142.34
2023-02-06T17:35:38.429Z,102144.75
2023-02-06T17:38:07.934Z,102146.72
2023-02-06T17:40:36.177Z,102154.38
2023-02-06T17:43:04.082Z,102142.28
2023-02-06T17:45:31.669Z,102149.03
2023-02-06T17:47:58.309Z,102145.84
2023-02-06T17:50:26.534Z,102152.50
2023-02-06T17:52:53.810Z,102155.28
2023-02-06T17:55:20.518Z,102154.84
2023-02-06T17:57:47.353Z,102156.63
2023-02-06T18:00:18.536Z,102164.94
2023-02-06T18:02:45.252Z,102157.50
2023-02-06T18:05:11.996Z,102162.47
2023-02-06T18:07:39.390Z,102171.13
2023-02-06T18:10:07.926Z,102166.41
2023-02-06T18:12:34.928Z,102172.41
2023-02-06T18:15:01.616Z,102168.78
2023-02-06T18:17:28.273Z,102173.69
2023-02-06T18:19:54.938Z,102178.06
2023-02-06T18:22:21.738Z,102176.53
2023-02-06T18:24:49.703Z,102187.31
2023-02-06T18:27:17.794Z,102185.81
2023-02-06T18:29:50.059Z,102186.78
2023-02-06T18:32:18.474Z,102184.56
2023-02-06T18:34:47.743Z,102183.31
2023-02-06T18:37:14.640Z,102189.81
2023-02-06T18:39:41.347Z,102188.09
2023-02-06T18:42:08.034Z,102190.84
2023-02-06T18:44:34.636Z,102184.84
2023-02-06T18:47:01.206Z,102186.34
2023-02-06T18:49:27.825Z,102189.16
2023-02-06T18:51:54.460Z,102180.75
2023-02-06T18:54:21.055Z,102191.66
2023-02-06T18:56:49.736Z,102195.59
2023-02-06T18:59:16.522Z,102199.97
2023-02-06T19:01:43.161Z,102206.28
2023-02-06T19:04:09.965Z,102207.34
2023-02-06T19:06:36.865Z,102209.81
2023-02-06T19:09:05.639Z,102209.00
2023-02-06T19:11:32.978Z,102207.25
2023-02-06T19:13:59.596Z,102209.47
2023-02-06T19:16:26.306Z,102205.19
2023-02-06T19:18:52.982Z,102203.84
2023-02-06T19:21:21.484Z,102214.66
2023-02-06T19:23:54.169Z,102216.50
2023-02-06T19:26:20.821Z,102219.72
2023-02-06T19:28:47.496Z,102220.59
2023-02-06T19:31:14.459Z,102228.06
2023-02-06T19:33:41.541Z,102224.66
2023-02-06T19:36:10.896Z,102233.13
2023-02-06T19:38:38.205Z,102237.00
2023-02-06T19:41:19.519Z,102234.88
2023-02-06T19:43:46.932Z,102238.03
2023-02-06T19:46:18.282Z,102241.16
2023-02-06T19:48:46.578Z,102243.31
2023-02-06T19:51:16.307Z,102248.13
2023-02-06T19:53:43.806Z,102247.06
2023-02-06T19:56:14.397Z,102244.88
2023-02-06T19:58:41.029Z,102247.53
2023-02-06T20:01:12.931Z,102248.47
2023-02-06T20:03:40.205Z,102247.31
2023-02-06T20:06:09.592Z,102252.09
2023-02-06T20:08:37.815Z,102251.78
2023-02-06T20:11:09.852Z,102253.47
2023-02-06T20:13:37.542Z,102259.03
2023-02-06T20:16:05.330Z,102262.41
2023-02-06T20:18:33.499Z,102261.50
2023-02-06T20:21:00.495Z,102274.47
2023-02-06T20:23:27.856Z,102272.13
2023-02-06T20:25:55.074Z,102275.69
2023-02-06T20:28:23.480Z,102264.69
2023-02-06T20:30:50.175Z,102277.19
2023-02-06T20:33:16.888Z,102271.72
2023-02-06T20:35:45.625Z,102269.38
2023-02-06T20:38:12.532Z,102276.13
2023-02-06T20:40:39.322Z,102274.44
2023-02-06T20:43:06.017Z,102278.41
2023-02-06T20:45:33.839Z,102279.06
2023-02-06T20:48:00.432Z,102283.25
2023-02-06T20:50:29.225Z,102287.72
2023-02-06T20:52:56.665Z,102292.75
2023-02-06T20:55:23.294Z,102287.19
2023-02-06T20:57:49.954Z,102289.88
2023-02-06T21:00:16.911Z,102290.75
2023-02-06T21:02:43.523Z,102296.50
2023-02-06T21:05:10.153Z,102310.28
2023-02-06T21:07:36.804Z,102304.03
2023-02-06T21:10:04.277Z,102306.97
2023-02-06T21:12:30.872Z,102307.59
2023-02-06T21:14:57.466Z,102310.16
2023-02-06T21:17:24.051Z,102320.06
2023-02-06T21:19:50.810Z,102328.78
2023-02-06T21:22:17.402Z,102330.97
2023-02-06T21:24:43.995Z,102320.59
2023-02-06T21:27:10.680Z,102317.59
2023-02-06T21:29:37.377Z,102319.59
2023-02-06T21:32:13.617Z,102313.06
2023-02-06T21:34:42.101Z,102309.53
2023-02-06T21:37:09.305Z,102310.72
2023-02-06T21:39:35.927Z,102310.44
2023-02-06T21:42:02.518Z,102312.31
2023-02-06T21:44:29.144Z,102309.00
2023-02-06T21:46:55.854Z,102310.06
2023-02-06T21:49:22.947Z,102309.53
2023-02-06T21:51:50.645Z,102309.84
2023-02-06T21:54:17.905Z,102315.25
2023-02-06T21:56:44.550Z,102316.78
2023-02-06T21:59:12.334Z,102319.38
2023-02-06T22:01:39.071Z,102320.38
2023-02-06T22:04:06.136Z,102324.19
2023-02-06T22:06:33.644Z,102326.63
2023-02-06T22:09:00.227Z,102319.03
2023-02-06T22:11:30.099Z,102324.53
2023-02-06T22:14:01.876Z,102327.00
2023-02-06T22:16:29.044Z,102326.66
2023-02-06T22:18:56.926Z,102331.28
2023-02-06T22:21:26.053Z,102338.00
2023-02-06T22:23:56.824Z,102338.16
2023-02-06T22:26:23.688Z,102332.41
2023-02-06T22:28:50.884Z,102340.31
2023-02-06T22:31:26.847Z,102336.91
2023-02-06T22:33:53.888Z,102338.44
2023-02-06T22:36:24.770Z,102333.97
2023-02-06T22:39:04.822Z,102335.53
2023-02-06T22:41:31.573Z,102344.34
2023-02-06T22:43:58.898Z,102338.00
2023-02-06T22:46:28.351Z,102339.53
2023-02-06T22:48:55.487Z,102343.16
2023-02-06T22:51:23.127Z,102345.03
2023-02-06T22:53:49.771Z,102337.56
2023-02-06T22:56:22.739Z,102340.59
2023-02-06T22:58:50.021Z,102337.22
2023-02-06T23:01:18.772Z,102339.81
2023-02-06T23:03:45.815Z,102344.72
2023-02-06T23:06:14.482Z,102342.28
2023-02-06T23:08:42.112Z,102335.75
2023-02-06T23:11:09.510Z,102336.84
2023-02-06T23:13:36.788Z,102337.75
2023-02-06T23:16:04.361Z,102334.13
2023-02-06T23:18:31.066Z,102325.00
2023-02-06T23:21:01.534Z,102336.41
2023-02-06T23:23:29.051Z,102346.69
2023-02-06T23:25:56.648Z,102343.34
2023-02-06T23:28:24.483Z,102348.59
2023-02-06T23:30:51.789Z,102350.69
2023-02-06T23:33:19.430Z,102348.25
2023-02-06T23:35:46.066Z,102349.84
2023-02-06T23:38:12.762Z,102347.94
2023-02-06T23:40:39.666Z,102354.09
2023-02-06T23:43:06.892Z,102351.59
2023-02-06T23:45:33.927Z,102351.22
2023-02-06T23:48:00.571Z,102357.22
2023-02-06T23:50:27.703Z,102357.66
2023-02-06T23:52:54.332Z,102345.63
2023-02-06T23:55:21.670Z,102342.03
2023-02-06T23:57:48.315Z,102340.69
